sensor_id;sensor_type;location;lat;lon;timestamp;pressure;altitude;pressure_sealevel;temperature;humidity
56402;BME280;42299;35.160;26.100;2022-07-10T00:00:56;100239.00;;;24.37;63.07
56402;BME280;42299;35.160;26.100;2022-07-10T00:02:18;100233.53;;;24.38;63.32
56402;BME280;42299;35.160;26.100;2022-07-10T00:03:40;100232.56;;;24.39;63.47
56402;BME280;42299;35.160;26.100;2022-07-10T00:05:06;100236.94;;;24.42;63.38
56402;BME280;42299;35.160;26.100;2022-07-10T00:06:27;100231.53;;;24.42;63.93
56402;BME280;42299;35.160;26.100;2022-07-10T00:07:50;100218.16;;;24.40;64.04
56402;BME280;42299;35.160;26.100;2022-07-10T00:09:13;100231.47;;;24.43;64.32
56402;BME280;42299;35.160;26.100;2022-07-10T00:10:36;100219.78;;;24.43;64.37
56402;BME280;42299;35.160;26.100;2022-07-10T00:12:00;100225.06;;;24.46;64.43
56402;BME280;42299;35.160;26.100;2022-07-10T00:13:21;100226.69;;;24.48;64.54
56402;BME280;42299;35.160;26.100;2022-07-10T00:14:44;100231.97;;;24.51;64.71
56402;BME280;42299;35.160;26.100;2022-07-10T00:16:06;100234.59;;;24.53;64.73
56402;BME280;42299;35.160;26.100;2022-07-10T00:17:28;100224.66;;;24.53;64.55
56402;BME280;42299;35.160;26.100;2022-07-10T00:18:50;100223.72;;;24.54;64.83
56402;BME280;42299;35.160;26.100;2022-07-10T00:20:14;100223.72;;;24.54;64.72
56402;BME280;42299;35.160;26.100;2022-07-10T00:21:36;100230.13;;;24.52;64.69
56402;BME280;42299;35.160;26.100;2022-07-10T00:22:59;100227.50;;;24.50;64.78
56402;BME280;42299;35.160;26.100;2022-07-10T00:24:21;100228.47;;;24.49;65.15
56402;BME280;42299;35.160;26.100;2022-07-10T00:25:42;100221.22;;;24.50;65.31
56402;BME280;42299;35.160;26.100;2022-07-10T00:27:06;100228.47;;;24.49;65.16
56402;BME280;42299;35.160;26.100;2022-07-10T00:28:29;100218.59;;;24.48;65.18
56402;BME280;42299;35.160;26.100;2022-07-10T00:29:51;100223.94;;;24.50;65.50
56402;BME280;42299;35.160;26.100;2022-07-10T00:31:13;100223.00;;;24.51;65.63
56402;BME280;42299;35.160;26.100;2022-07-10T00:32:35;100219.16;;;24.55;65.41
56402;BME280;42299;35.160;26.100;2022-07-10T00:33:58;100219.91;;;24.58;65.44
56402;BME280;42299;35.160;26.100;2022-07-10T00:35:20;100217.13;;;24.60;65.58
56402;BME280;42299;35.160;26.100;2022-07-10T00:36:42;100212.44;;;24.63;65.72
56402;BME280;42299;35.160;26.100;2022-07-10T00:38:04;100210.47;;;24.67;65.48
56402;BME280;42299;35.160;26.100;2022-07-10T00:39:27;100210.38;;;24.69;65.77
56402;BME280;42299;35.160;26.100;2022-07-10T00:40:51;100211.09;;;24.72;65.72
56402;BME280;42299;35.160;26.100;2022-07-10T00:42:16;100212.69;;;24.76;65.80
56402;BME280;42299;35.160;26.100;2022-07-10T00:43:51;100213.41;;;24.80;65.37
56402;BME280;42299;35.160;26.100;2022-07-10T00:45:15;100218.72;;;24.81;65.66
56402;BME280;42299;35.160;26.100;2022-07-10T00:46:38;100212.28;;;24.84;65.50
56402;BME280;42299;35.160;26.100;2022-07-10T00:48:01;100214.84;;;24.87;65.31
56402;BME280;42299;35.160;26.100;2022-07-10T00:49:24;100205.75;;;24.88;65.53
56402;BME280;42299;35.160;26.100;2022-07-10T00:50:46;100206.59;;;24.90;65.61
56402;BME280;42299;35.160;26.100;2022-07-10T00:52:11;100208.41;;;24.89;65.72
56402;BME280;42299;35.160;26.100;2022-07-10T00:53:34;100207.50;;;24.89;65.69
56402;BME280;42299;35.160;26.100;2022-07-10T00:54:56;100203.03;;;24.89;65.89
56402;BME280;42299;35.160;26.100;2022-07-10T00:56:19;100200.34;;;24.88;65.66
56402;BME280;42299;35.160;26.100;2022-07-10T00:57:44;100194.00;;;24.89;65.58
56402;BME280;42299;35.160;26.100;2022-07-10T00:59:06;100197.53;;;24.91;65.50
56402;BME280;42299;35.160;26.100;2022-07-10T01:00:28;100200.09;;;24.94;65.83
56402;BME280;42299;35.160;26.100;2022-07-10T01:01:51;100211.69;;;24.96;65.67
56402;BME280;42299;35.160;26.100;2022-07-10T01:03:12;100201.81;;;24.95;65.58
56402;BME280;42299;35.160;26.100;2022-07-10T01:04:35;100199.03;;;24.96;65.96
56402;BME280;42299;35.160;26.100;2022-07-10T01:05:57;100207.00;;;24.99;65.82
56402;BME280;42299;35.160;26.100;2022-07-10T01:07:20;100205.19;;;25.00;66.04
56402;BME280;42299;35.160;26.100;2022-07-10T01:08:43;100206.91;;;25.01;65.74
56402;BME280;42299;35.160;26.100;2022-07-10T01:10:05;100211.34;;;25.02;66.12
56402;BME280;42299;35.160;26.100;2022-07-10T01:11:28;100202.63;;;24.97;66.31
56402;BME280;42299;35.160;26.100;2022-07-10T01:12:51;100219.16;;;24.91;66.51
56402;BME280;42299;35.160;26.100;2022-07-10T01:14:15;100213.97;;;24.86;67.08
56402;BME280;42299;35.160;26.100;2022-07-10T01:15:37;100218.97;;;24.77;67.11
56402;BME280;42299;35.160;26.100;2022-07-10T01:16:59;100208.88;;;24.63;67.60
56402;BME280;42299;35.160;26.100;2022-07-10T01:18:22;100216.88;;;24.47;67.94
56402;BME280;42299;35.160;26.100;2022-07-10T01:19:43;100215.00;;;24.31;67.99
56402;BME280;42299;35.160;26.100;2022-07-10T01:21:22;100216.59;;;24.16;67.97
56402;BME280;42299;35.160;26.100;2022-07-10T01:22:44;100209.03;;;24.05;68.59
56402;BME280;42299;35.160;26.100;2022-07-10T01:24:08;100208.53;;;23.97;68.39
56402;BME280;42299;35.160;26.100;2022-07-10T01:25:29;100213.28;;;23.92;68.68
56402;BME280;42299;35.160;26.100;2022-07-10T01:26:52;100210.81;;;23.88;68.69
56402;BME280;42299;35.160;26.100;2022-07-10T01:28:15;100218.25;;;23.82;68.68
56402;BME280;42299;35.160;26.100;2022-07-10T01:29:37;100214.81;;;23.79;68.70
56402;BME280;42299;35.160;26.100;2022-07-10T01:31:00;100211.25;;;23.78;68.60
56402;BME280;42299;35.160;26.100;2022-07-10T01:32:23;100213.88;;;23.80;68.56
56402;BME280;42299;35.160;26.100;2022-07-10T01:33:46;100213.00;;;23.79;68.65
56402;BME280;42299;35.160;26.100;2022-07-10T01:35:09;100216.41;;;23.83;68.66
56402;BME280;42299;35.160;26.100;2022-07-10T01:36:33;100220.78;;;23.86;68.91
56402;BME280;42299;35.160;26.100;2022-07-10T01:37:55;100209.00;;;23.88;68.58
56402;BME280;42299;35.160;26.100;2022-07-10T01:39:18;100213.50;;;23.88;68.56
56402;BME280;42299;35.160;26.100;2022-07-10T01:40:41;100219.78;;;23.88;68.74
56402;BME280;42299;35.160;26.100;2022-07-10T01:42:02;100214.41;;;23.88;68.76
56402;BME280;42299;35.160;26.100;2022-07-10T01:43:25;100220.16;;;23.80;69.32
56402;BME280;42299;35.160;26.100;2022-07-10T01:44:46;100232.00;;;23.76;69.69
56402;BME280;42299;35.160;26.100;2022-07-10T01:46:09;100230.28;;;23.75;69.92
56402;BME280;42299;35.160;26.100;2022-07-10T01:47:31;100236.09;;;23.66;70.97
56402;BME280;42299;35.160;26.100;2022-07-10T01:48:54;100238.31;;;23.57;71.45
56402;BME280;42299;35.160;26.100;2022-07-10T01:50:17;100233.03;;;23.35;72.76
56402;BME280;42299;35.160;26.100;2022-07-10T01:51:41;100234.66;;;23.19;73.71
56402;BME280;42299;35.160;26.100;2022-07-10T01:53:04;100252.28;;;23.05;74.36
56402;BME280;42299;35.160;26.100;2022-07-10T01:54:26;100252.63;;;22.98;75.19
56402;BME280;42299;35.160;26.100;2022-07-10T01:55:48;100246.56;;;22.93;75.62
56402;BME280;42299;35.160;26.100;2022-07-10T01:57:10;100251.06;;;22.92;75.96
56402;BME280;42299;35.160;26.100;2022-07-10T01:58:33;100243.16;;;22.89;76.17
56402;BME280;42299;35.160;26.100;2022-07-10T01:59:54;100258.59;;;22.84;76.52
56402;BME280;42299;35.160;26.100;2022-07-10T02:01:17;100253.41;;;22.80;76.58
56402;BME280;42299;35.160;26.100;2022-07-10T02:02:38;100258.81;;;22.80;76.49
56402;BME280;42299;35.160;26.100;2022-07-10T02:04:01;100270.34;;;22.83;76.47
56402;BME280;42299;35.160;26.100;2022-07-10T02:05:41;100261.50;;;22.80;76.49
56402;BME280;42299;35.160;26.100;2022-07-10T02:07:04;100261.25;;;22.64;76.65
56402;BME280;42299;35.160;26.100;2022-07-10T02:08:26;100257.13;;;22.55;76.93
56402;BME280;42299;35.160;26.100;2022-07-10T02:09:49;100261.13;;;22.45;77.07
56402;BME280;42299;35.160;26.100;2022-07-10T02:11:12;100273.00;;;22.40;77.19
56402;BME280;42299;35.160;26.100;2022-07-10T02:12:33;100275.78;;;22.38;77.42
56402;BME280;42299;35.160;26.100;2022-07-10T02:13:55;100270.63;;;22.32;77.82
56402;BME280;42299;35.160;26.100;2022-07-10T02:15:18;100284.97;;;22.33;78.02
56402;BME280;42299;35.160;26.100;2022-07-10T02:16:39;100281.16;;;22.38;77.87
56402;BME280;42299;35.160;26.100;2022-07-10T02:18:02;100279.16;;;22.43;77.75
56402;BME280;42299;35.160;26.100;2022-07-10T02:19:24;100270.94;;;22.46;77.88
56402;BME280;42299;35.160;26.100;2022-07-10T02:20:48;100265.66;;;22.45;78.04
56402;BME280;42299;35.160;26.100;2022-07-10T02:22:10;100276.63;;;22.39;78.42
56402;BME280;42299;35.160;26.100;2022-07-10T02:23:33;100271.25;;;22.39;78.62
56402;BME280;42299;35.160;26.100;2022-07-10T02:24:55;100263.03;;;22.43;78.52
56402;BME280;42299;35.160;26.100;2022-07-10T02:26:18;100266.25;;;22.51;78.41
56402;BME280;42299;35.160;26.100;2022-07-10T02:27:41;100248.13;;;22.56;78.12
56402;BME280;42299;35.160;26.100;2022-07-10T02:29:04;100257.84;;;22.59;78.24
56402;BME280;42299;35.160;26.100;2022-07-10T02:30:27;100268.25;;;22.46;78.32
56402;BME280;42299;35.160;26.100;2022-07-10T02:31:49;100268.13;;;22.27;79.09
56402;BME280;42299;35.160;26.100;2022-07-10T02:33:12;100258.75;;;22.16;79.81
56402;BME280;42299;35.160;26.100;2022-07-10T02:34:33;100265.19;;;22.12;80.44
56402;BME280;42299;35.160;26.100;2022-07-10T02:35:56;100256.38;;;22.08;80.76
56402;BME280;42299;35.160;26.100;2022-07-10T02:37:20;100273.56;;;22.04;81.09
56402;BME280;42299;35.160;26.100;2022-07-10T02:38:42;100273.88;;;21.97;81.45
56402;BME280;42299;35.160;26.100;2022-07-10T02:40:04;100274.78;;;21.96;81.59
56402;BME280;42299;35.160;26.100;2022-07-10T02:41:27;100266.88;;;21.91;81.68
56402;BME280;42299;35.160;26.100;2022-07-10T02:42:49;100274.31;;;21.84;81.73
56402;BME280;42299;35.160;26.100;2022-07-10T02:44:11;100270.09;;;21.77;81.95
56402;BME280;42299;35.160;26.100;2022-07-10T02:45:34;100264.78;;;21.76;82.06
56402;BME280;42299;35.160;26.100;2022-07-10T02:46:56;100267.47;;;21.76;82.04
56402;BME280;42299;35.160;26.100;2022-07-10T02:48:19;100268.34;;;21.76;82.06
56402;BME280;42299;35.160;26.100;2022-07-10T02:49:41;100267.66;;;21.71;82.28
56402;BME280;42299;35.160;26.100;2022-07-10T02:51:03;100269.41;;;21.72;82.06
56402;BME280;42299;35.160;26.100;2022-07-10T02:52:26;100271.22;;;21.72;82.11
56402;BME280;42299;35.160;26.100;2022-07-10T02:53:51;100269.28;;;21.75;81.89
56402;BME280;42299;35.160;26.100;2022-07-10T02:55:13;100274.69;;;21.74;81.61
56402;BME280;42299;35.160;26.100;2022-07-10T02:56:36;100271.22;;;21.72;81.43
56402;BME280;42299;35.160;26.100;2022-07-10T02:58:00;100265.84;;;21.72;81.51
56402;BME280;42299;35.160;26.100;2022-07-10T02:59:24;100264.78;;;21.76;81.57
56402;BME280;42299;35.160;26.100;2022-07-10T03:00:45;100262.84;;;21.79;81.41
56402;BME280;42299;35.160;26.100;2022-07-10T03:02:08;100265.38;;;21.84;81.01
56402;BME280;42299;35.160;26.100;2022-07-10T03:03:30;100255.50;;;21.84;80.78
56402;BME280;42299;35.160;26.100;2022-07-10T03:04:53;100262.78;;;21.81;80.91
56402;BME280;42299;35.160;26.100;2022-07-10T03:06:14;100259.31;;;21.79;81.09
56402;BME280;42299;35.160;26.100;2022-07-10T03:07:38;100252.81;;;21.84;81.24
56402;BME280;42299;35.160;26.100;2022-07-10T03:09:00;100255.25;;;21.91;81.16
56402;BME280;42299;35.160;26.100;2022-07-10T03:10:23;100256.94;;;21.93;81.03
56402;BME280;42299;35.160;26.100;2022-07-10T03:11:44;100256.94;;;21.93;81.04
56402;BME280;42299;35.160;26.100;2022-07-10T03:13:07;100256.94;;;21.93;81.18
56402;BME280;42299;35.160;26.100;2022-07-10T03:14:28;100258.81;;;21.91;81.29
56402;BME280;42299;35.160;26.100;2022-07-10T03:15:53;100256.94;;;21.93;81.22
56402;BME280;42299;35.160;26.100;2022-07-10T03:17:16;100255.19;;;21.92;81.35
56402;BME280;42299;35.160;26.100;2022-07-10T03:18:38;100249.81;;;21.92;81.16
56402;BME280;42299;35.160;26.100;2022-07-10T03:20:00;100260.69;;;21.89;81.41
56402;BME280;42299;35.160;26.100;2022-07-10T03:21:22;100255.34;;;21.87;81.40
56402;BME280;42299;35.160;26.100;2022-07-10T03:22:46;100257.25;;;21.85;81.55
56402;BME280;42299;35.160;26.100;2022-07-10T03:24:08;100254.72;;;21.81;81.99
56402;BME280;42299;35.160;26.100;2022-07-10T03:25:31;100256.63;;;21.79;82.25
56402;BME280;42299;35.160;26.100;2022-07-10T03:26:54;100261.03;;;21.80;82.30
56402;BME280;42299;35.160;26.100;2022-07-10T03:28:16;100259.31;;;21.79;82.63
56402;BME280;42299;35.160;26.100;2022-07-10T03:29:39;100276.22;;;21.81;82.39
56402;BME280;42299;35.160;26.100;2022-07-10T03:31:01;100268.94;;;21.84;82.54
56402;BME280;42299;35.160;26.100;2022-07-10T03:32:24;100273.25;;;21.88;82.57
56402;BME280;42299;35.160;26.100;2022-07-10T03:33:45;100271.34;;;21.92;82.24
56402;BME280;42299;35.160;26.100;2022-07-10T03:35:08;100276.56;;;21.95;82.33
56402;BME280;42299;35.160;26.100;2022-07-10T03:36:29;100276.38;;;22.01;82.45
56402;BME280;42299;35.160;26.100;2022-07-10T03:37:53;100279.72;;;22.06;82.30
56402;BME280;42299;35.160;26.100;2022-07-10T03:39:15;100283.50;;;22.02;82.20
56402;BME280;42299;35.160;26.100;2022-07-10T03:40:37;100275.47;;;22.01;82.33
56402;BME280;42299;35.160;26.100;2022-07-10T03:41:59;100281.69;;;22.03;82.32
56402;BME280;42299;35.160;26.100;2022-07-10T03:43:21;100276.16;;;22.06;82.25
56402;BME280;42299;35.160;26.100;2022-07-10T03:44:45;100279.50;;;22.12;82.04
56402;BME280;42299;35.160;26.100;2022-07-10T03:46:06;100283.84;;;22.16;81.88
56402;BME280;42299;35.160;26.100;2022-07-10T03:47:29;100281.38;;;22.10;81.82
56402;BME280;42299;35.160;26.100;2022-07-10T03:48:52;100280.47;;;22.11;82.26
56402;BME280;42299;35.160;26.100;2022-07-10T03:50:13;100282.81;;;22.19;82.23
56402;BME280;42299;35.160;26.100;2022-07-10T03:51:36;100280.69;;;22.27;82.08
56402;BME280;42299;35.160;26.100;2022-07-10T03:52:59;100289.41;;;22.34;81.96
56402;BME280;42299;35.160;26.100;2022-07-10T03:54:22;100259.66;;;22.38;81.89
56402;BME280;42299;35.160;26.100;2022-07-10T03:55:44;100282.34;;;22.31;82.16
56402;BME280;42299;35.160;26.100;2022-07-10T03:57:07;100278.66;;;22.34;82.50
56402;BME280;42299;35.160;26.100;2022-07-10T03:58:47;100283.91;;;22.37;82.74
56402;BME280;42299;35.160;26.100;2022-07-10T04:00:09;100283.84;;;22.38;82.91
56402;BME280;42299;35.160;26.100;2022-07-10T04:01:34;100281.28;;;22.35;82.97
56402;BME280;42299;35.160;26.100;2022-07-10T04:02:56;100292.78;;;22.39;83.08
56402;BME280;42299;35.160;26.100;2022-07-10T04:04:18;100295.16;;;22.46;82.90
56402;BME280;42299;35.160;26.100;2022-07-10T04:05:40;100280.09;;;22.64;83.06
56402;BME280;42299;35.160;26.100;2022-07-10T04:07:03;100282.91;;;22.83;83.20
56402;BME280;42299;35.160;26.100;2022-07-10T04:08:26;100276.34;;;22.90;83.03
56402;BME280;42299;35.160;26.100;2022-07-10T04:09:49;100272.44;;;22.97;83.26
56402;BME280;42299;35.160;26.100;2022-07-10T04:11:11;100285.69;;;23.01;83.13
56402;BME280;42299;35.160;26.100;2022-07-10T04:12:32;100277.94;;;23.14;83.33
56402;BME280;42299;35.160;26.100;2022-07-10T04:13:55;100278.00;;;23.33;83.45
56402;BME280;42299;35.160;26.100;2022-07-10T04:15:17;100283.69;;;23.47;82.81
56402;BME280;42299;35.160;26.100;2022-07-10T04:16:40;100289.41;;;23.60;82.53
56402;BME280;42299;35.160;26.100;2022-07-10T04:18:01;100280.91;;;23.69;82.03
56402;BME280;42299;35.160;26.100;2022-07-10T04:19:23;100291.19;;;23.79;81.82
56402;BME280;42299;35.160;26.100;2022-07-10T04:20:45;100284.41;;;23.90;81.46
56402;BME280;42299;35.160;26.100;2022-07-10T04:22:07;100278.28;;;24.05;81.02
56402;BME280;42299;35.160;26.100;2022-07-10T04:23:31;100280.06;;;24.25;80.53
56402;BME280;42299;35.160;26.100;2022-07-10T04:24:54;100279.41;;;24.38;79.96
56402;BME280;42299;35.160;26.100;2022-07-10T04:26:15;100290.22;;;24.55;79.40
56402;BME280;42299;35.160;26.100;2022-07-10T04:27:38;100276.22;;;24.66;79.22
56402;BME280;42299;35.160;26.100;2022-07-10T04:29:00;100273.72;;;24.61;78.91
56402;BME280;42299;35.160;26.100;2022-07-10T04:30:22;100278.56;;;24.55;78.65
56402;BME280;42299;35.160;26.100;2022-07-10T04:31:44;100270.81;;;24.66;78.21
56402;BME280;42299;35.160;26.100;2022-07-10T04:33:07;100265.25;;;24.69;77.61
56402;BME280;42299;35.160;26.100;2022-07-10T04:34:29;100283.09;;;24.54;77.30
56402;BME280;42299;35.160;26.100;2022-07-10T04:35:52;100285.22;;;24.48;77.16
56402;BME280;42299;35.160;26.100;2022-07-10T04:37:14;100278.84;;;24.68;76.92
56402;BME280;42299;35.160;26.100;2022-07-10T04:38:38;100285.72;;;24.92;75.57
56402;BME280;42299;35.160;26.100;2022-07-10T04:39:59;100288.59;;;25.06;74.89
56402;BME280;42299;35.160;26.100;2022-07-10T04:41:22;100290.16;;;25.27;74.06
56402;BME280;42299;35.160;26.100;2022-07-10T04:42:43;100293.75;;;25.45;73.28
56402;BME280;42299;35.160;26.100;2022-07-10T04:44:06;100293.16;;;25.73;72.19
56402;BME280;42299;35.160;26.100;2022-07-10T04:45:28;100283.28;;;26.05;71.29
56402;BME280;42299;35.160;26.100;2022-07-10T04:46:50;100290.13;;;26.28;70.17
56402;BME280;42299;35.160;26.100;2022-07-10T04:48:12;100291.31;;;26.22;69.82
56402;BME280;42299;35.160;26.100;2022-07-10T04:49:34;100283.31;;;25.88;70.47
56402;BME280;42299;35.160;26.100;2022-07-10T04:50:57;100293.44;;;25.84;70.99
56402;BME280;42299;35.160;26.100;2022-07-10T04:52:19;100287.03;;;26.18;70.11
56402;BME280;42299;35.160;26.100;2022-07-10T04:53:43;100288.88;;;26.49;68.93
56402;BME280;42299;35.160;26.100;2022-07-10T04:55:07;100281.84;;;26.92;67.72
56402;BME280;42299;35.160;26.100;2022-07-10T04:56:29;100286.50;;;27.20;66.54
56402;BME280;42299;35.160;26.100;2022-07-10T04:57:52;100284.97;;;27.44;65.85
56402;BME280;42299;35.160;26.100;2022-07-10T04:59:14;100291.38;;;27.29;65.92
56402;BME280;42299;35.160;26.100;2022-07-10T05:00:37;100286.66;;;27.03;66.38
56402;BME280;42299;35.160;26.100;2022-07-10T05:01:58;100287.53;;;26.72;67.00
56402;BME280;42299;35.160;26.100;2022-07-10T05:03:20;100284.78;;;26.26;67.26
56402;BME280;42299;35.160;26.100;2022-07-10T05:04:42;100283.66;;;25.82;68.14
56402;BME280;42299;35.160;26.100;2022-07-10T05:06:05;100281.09;;;25.46;68.66
56402;BME280;42299;35.160;26.100;2022-07-10T05:07:26;100279.84;;;25.18;69.25
56402;BME280;42299;35.160;26.100;2022-07-10T05:08:50;100289.00;;;24.98;69.81
56402;BME280;42299;35.160;26.100;2022-07-10T05:10:12;100286.97;;;24.85;70.28
56402;BME280;42299;35.160;26.100;2022-07-10T05:11:34;100292.81;;;24.76;70.21
56402;BME280;42299;35.160;26.100;2022-07-10T05:12:57;100278.75;;;24.69;70.44
56402;BME280;42299;35.160;26.100;2022-07-10T05:14:20;100279.94;;;24.63;70.36
56402;BME280;42299;35.160;26.100;2022-07-10T05:15:42;100289.44;;;24.53;70.48
56402;BME280;42299;35.160;26.100;2022-07-10T05:17:07;100284.44;;;24.46;70.50
56402;BME280;42299;35.160;26.100;2022-07-10T05:18:30;100290.13;;;24.40;70.49
56402;BME280;42299;35.160;26.100;2022-07-10T05:19:52;100288.91;;;24.28;70.78
56402;BME280;42299;35.160;26.100;2022-07-10T05:21:16;100293.78;;;24.20;71.23
56402;BME280;42299;35.160;26.100;2022-07-10T05:22:39;100302.28;;;24.11;71.07
56402;BME280;42299;35.160;26.100;2022-07-10T05:24:03;100302.72;;;24.02;71.66
56402;BME280;42299;35.160;26.100;2022-07-10T05:25:25;100303.50;;;24.04;71.63
56402;BME280;42299;35.160;26.100;2022-07-10T05:26:51;100295.66;;;24.18;71.67
56402;BME280;42299;35.160;26.100;2022-07-10T05:28:13;100295.94;;;24.49;71.29
56402;BME280;42299;35.160;26.100;2022-07-10T05:29:36;100287.22;;;25.15;70.24
56402;BME280;42299;35.160;26.100;2022-07-10T05:30:58;100299.84;;;26.14;68.25
56402;BME280;42299;35.160;26.100;2022-07-10T05:32:21;100303.28;;;26.96;65.93
56402;BME280;42299;35.160;26.100;2022-07-10T05:33:43;100307.22;;;27.21;65.02
56402;BME280;42299;35.160;26.100;2022-07-10T05:35:07;100305.34;;;27.51;63.87
56402;BME280;42299;35.160;26.100;2022-07-10T05:36:30;100306.94;;;27.55;63.46
56402;BME280;42299;35.160;26.100;2022-07-10T05:37:52;100308.00;;;27.23;63.85
56402;BME280;42299;35.160;26.100;2022-07-10T05:39:16;100297.06;;;26.79;64.63
56402;BME280;42299;35.160;26.100;2022-07-10T05:40:37;100309.16;;;26.42;65.38
56402;BME280;42299;35.160;26.100;2022-07-10T05:42:00;100306.31;;;26.12;66.06
56402;BME280;42299;35.160;26.100;2022-07-10T05:43:22;100304.53;;;25.95;66.55
56402;BME280;42299;35.160;26.100;2022-07-10T05:44:44;100301.72;;;25.81;66.54
56402;BME280;42299;35.160;26.100;2022-07-10T05:46:06;100301.59;;;25.67;66.67
56402;BME280;42299;35.160;26.100;2022-07-10T05:47:27;100296.38;;;25.47;66.86
56402;BME280;42299;35.160;26.100;2022-07-10T05:48:50;100297.25;;;25.30;67.28
56402;BME280;42299;35.160;26.100;2022-07-10T05:50:12;100302.50;;;25.16;67.39
56402;BME280;42299;35.160;26.100;2022-07-10T05:51:34;100306.00;;;25.00;67.99
56402;BME280;42299;35.160;26.100;2022-07-10T05:52:57;100298.69;;;24.84;68.11
56402;BME280;42299;35.160;26.100;2022-07-10T05:54:21;100309.22;;;24.35;69.90
56402;BME280;42299;35.160;26.100;2022-07-10T05:55:43;100306.94;;;23.89;71.94
56402;BME280;42299;35.160;26.100;2022-07-10T05:57:05;100323.44;;;23.62;72.69
56402;BME280;42299;35.160;26.100;2022-07-10T05:58:27;100316.75;;;23.51;73.54
56402;BME280;42299;35.160;26.100;2022-07-10T05:59:50;100317.88;;;23.45;73.81
56402;BME280;42299;35.160;26.100;2022-07-10T06:01:11;100334.91;;;23.47;74.04
56402;BME280;42299;35.160;26.100;2022-07-10T06:02:34;100334.91;;;23.47;73.91
56402;BME280;42299;35.160;26.100;2022-07-10T06:03:56;100334.63;;;23.53;73.80
56402;BME280;42299;35.160;26.100;2022-07-10T06:05:18;100339.59;;;23.62;73.65
56402;BME280;42299;35.160;26.100;2022-07-10T06:06:40;100328.63;;;23.67;73.83
56402;BME280;42299;35.160;26.100;2022-07-10T06:08:02;100327.66;;;23.68;73.62
56402;BME280;42299;35.160;26.100;2022-07-10T06:09:26;100337.28;;;23.73;73.56
56402;BME280;42299;35.160;26.100;2022-07-10T06:10:49;100333.16;;;23.85;73.22
56402;BME280;42299;35.160;26.100;2022-07-10T06:12:11;100335.38;;;23.96;72.90
56402;BME280;42299;35.160;26.100;2022-07-10T06:13:32;100332.00;;;24.09;72.68
56402;BME280;42299;35.160;26.100;2022-07-10T06:14:55;100334.91;;;24.25;72.42
56402;BME280;42299;35.160;26.100;2022-07-10T06:16:17;100325.56;;;24.32;72.45
56402;BME280;42299;35.160;26.100;2022-07-10T06:17:40;100322.06;;;24.30;72.26
56402;BME280;42299;35.160;26.100;2022-07-10T06:19:01;100322.06;;;24.30;72.40
56402;BME280;42299;35.160;26.100;2022-07-10T06:20:24;100322.56;;;24.38;72.27
56402;BME280;42299;35.160;26.100;2022-07-10T06:21:46;100328.31;;;24.49;72.27
56402;BME280;42299;35.160;26.100;2022-07-10T06:23:08;100328.53;;;24.63;72.02
56402;BME280;42299;35.160;26.100;2022-07-10T06:24:32;100322.84;;;25.23;71.43
56402;BME280;42299;35.160;26.100;2022-07-10T06:25:53;100325.28;;;25.79;69.94
56402;BME280;42299;35.160;26.100;2022-07-10T06:27:16;100322.19;;;26.02;69.19
56402;BME280;42299;35.160;26.100;2022-07-10T06:28:38;100311.84;;;26.26;68.57
56402;BME280;42299;35.160;26.100;2022-07-10T06:30:01;100316.59;;;26.38;67.69
56402;BME280;42299;35.160;26.100;2022-07-10T06:31:24;100312.84;;;26.25;68.04
56402;BME280;42299;35.160;26.100;2022-07-10T06:32:46;100309.44;;;26.20;68.42
56402;BME280;42299;35.160;26.100;2022-07-10T06:34:09;100317.72;;;26.50;67.89
56402;BME280;42299;35.160;26.100;2022-07-10T06:35:30;100318.75;;;26.63;67.23
56402;BME280;42299;35.160;26.100;2022-07-10T06:36:52;100322.19;;;26.51;67.21
56402;BME280;42299;35.160;26.100;2022-07-10T06:38:14;100319.19;;;26.24;67.25
56402;BME280;42299;35.160;26.100;2022-07-10T06:39:38;100313.81;;;26.07;67.46
56402;BME280;42299;35.160;26.100;2022-07-10T06:41:01;100312.38;;;26.00;67.84
56402;BME280;42299;35.160;26.100;2022-07-10T06:42:24;100309.44;;;26.37;67.42
56402;BME280;42299;35.160;26.100;2022-07-10T06:43:47;100316.66;;;26.68;66.57
56402;BME280;42299;35.160;26.100;2022-07-10T06:45:10;100326.53;;;26.69;66.11
56402;BME280;42299;35.160;26.100;2022-07-10T06:46:32;100321.47;;;26.47;66.54
56402;BME280;42299;35.160;26.100;2022-07-10T06:47:54;100310.88;;;26.27;66.84
56402;BME280;42299;35.160;26.100;2022-07-10T06:49:19;100318.78;;;26.14;67.19
56402;BME280;42299;35.160;26.100;2022-07-10T06:50:41;100312.88;;;26.24;66.99
56402;BME280;42299;35.160;26.100;2022-07-10T06:52:04;100313.09;;;26.36;66.75
56402;BME280;42299;35.160;26.100;2022-07-10T06:53:25;100310.97;;;26.26;66.72
56402;BME280;42299;35.160;26.100;2022-07-10T06:54:50;100325.34;;;26.10;66.69
56402;BME280;42299;35.160;26.100;2022-07-10T06:56:13;100323.00;;;25.87;67.29
56402;BME280;42299;35.160;26.100;2022-07-10T06:57:37;100319.34;;;25.72;67.26
56402;BME280;42299;35.160;26.100;2022-07-10T06:58:59;100317.19;;;25.62;67.55
56402;BME280;42299;35.160;26.100;2022-07-10T07:00:22;100316.97;;;25.66;67.58
56402;BME280;42299;35.160;26.100;2022-07-10T07:01:45;100321.38;;;26.00;67.30
56402;BME280;42299;35.160;26.100;2022-07-10T07:03:06;100327.50;;;26.68;66.00
56402;BME280;42299;35.160;26.100;2022-07-10T07:04:28;100317.13;;;27.06;64.69
56402;BME280;42299;35.160;26.100;2022-07-10T07:05:50;100331.41;;;27.10;64.20
56402;BME280;42299;35.160;26.100;2022-07-10T07:07:12;100321.81;;;27.18;63.90